WetterOnline ( https://www.wetteronline.de )

Wetter aktuell Miltenberg

Aktuelles Wetter: Michelstadt-Vielbrunn (455m)

6-stündlich | Neueste Meldungen
Ortszeit Temperatur Wetter
Di, 26.05. 20:00 15.2° C leicht bewölkt
Di, 26.05. 14:00 14.8° C bewölkt
Di, 26.05. 8:00 9.7° C wolkig
Di, 26.05. 2:00 10.4° C wolkenlos
Mo, 25.05. 20:00 16.5° C wolkig
Mo, 25.05. 14:00 14.9° C bedeckt
Mo, 25.05. 8:00 10.7° C bewölkt
Mo, 25.05. 2:00 11.0° C leichter Regen
Ortszeit Temperatur Wetter
Di, 26.05. 23:00 12.8° C leicht bewölkt
Di, 26.05. 22:50 12.8° C leicht bewölkt
Di, 26.05. 22:40 12.7° C wolkenlos
Di, 26.05. 22:30 12.6° C wolkenlos
Di, 26.05. 22:20 12.6° C wolkenlos
Di, 26.05. 22:10 12.8° C wolkenlos
Di, 26.05. 22:00 13.2° C wolkenlos
Di, 26.05. 21:30 13.0° C fast wolkenlos
Di, 26.05. 21:00 13.3° C fast wolkenlos
Di, 26.05. 20:30 13.9° C wolkig
Di, 26.05. 20:00 15.2° C leicht bewölkt
Di, 26.05. 19:30 15.2° C fast wolkenlos
Ortszeit Relative Feuchte Sichtweite
Di, 26.05. 20:00 51% 60 km
Di, 26.05. 14:00 57% 45 km
Di, 26.05. 8:00 83% 45 km
Di, 26.05. 2:00 70% 60 km
Mo, 25.05. 20:00 52% 60 km
Mo, 25.05. 14:00 69% 35 km
Mo, 25.05. 8:00 92% 23 km
Mo, 25.05. 2:00 89% 7 km
Ortszeit Relative Feuchte Sichtweite
Di, 26.05. 23:00 61% >70 km
Di, 26.05. 22:50 61% -
Di, 26.05. 22:40 62% -
Di, 26.05. 22:30 62% 60 km
Di, 26.05. 22:20 62% -
Di, 26.05. 22:10 61% -
Di, 26.05. 22:00 59% 65 km
Di, 26.05. 21:30 59% 65 km
Di, 26.05. 21:00 59% 55 km
Di, 26.05. 20:30 58% 50 km
Di, 26.05. 20:00 51% 60 km
Di, 26.05. 19:30 56% 45 km
Ortszeit Niederschlagsmenge Niederschlagsart
Di, 26.05. 20:00 0.0 l/m2 in 12 Std. -
Di, 26.05. 14:00 0.0 l/m2 in 6 Std. -
Di, 26.05. 8:00 0.0 l/m2 in 12 Std. -
Di, 26.05. 2:00 0.0 l/m2 in 6 Std. -
Mo, 25.05. 20:00 0.1 l/m2 in 12 Std. -
Mo, 25.05. 14:00 0.1 l/m2 in 6 Std. Regen
Mo, 25.05. 8:00 0.4 l/m2 in 12 Std. Regen
Mo, 25.05. 2:00 0.2 l/m2 in 6 Std. Regen
Ortszeit Niederschlagsmenge Niederschlagsart
Di, 26.05. 23:00 0.0 l/m2 in 1 Std. -
Di, 26.05. 22:50 keine Meldung -
Di, 26.05. 22:40 keine Meldung -
Di, 26.05. 22:30 0.0 l/m2 in 1 Std. -
Di, 26.05. 22:20 keine Meldung -
Di, 26.05. 22:10 keine Meldung -
Di, 26.05. 22:00 0.0 l/m2 in 1 Std. -
Di, 26.05. 21:30 0.0 l/m2 in 1 Std. -
Di, 26.05. 21:00 0.0 l/m2 in 1 Std. -
Di, 26.05. 20:30 0.0 l/m2 in 1 Std. -
Di, 26.05. 20:00 0.0 l/m2 in 1 Std. -
Di, 26.05. 19:30 0.0 l/m2 in 1 Std. -
Ortszeit Stärke Spitze Richtung
km/h Bft. km/h Grad Sektor
Di, 26.05. 20:00 14 3 36 70° O
Di, 26.05. 14:00 13 3 20 30° NO
Di, 26.05. 8:00 6 1 9 70° O
Di, 26.05. 2:00 4 1 22 20° N
Mo, 25.05. 20:00 13 3 33 300° NW
Mo, 25.05. 14:00 14 3 36 290° W
Mo, 25.05. 8:00 11 2 25 270° W
Mo, 25.05. 2:00 11 2 24 280° W
Ortszeit Stärke Spitze Richtung
km/h Bft. km/h Grad Sektor
Di, 26.05. 23:00 4 1 7 60° NO
Di, 26.05. 22:50 4 1 - 60° NO
Di, 26.05. 22:40 4 1 - 40° NO
Di, 26.05. 22:30 4 1 7 60° NO
Di, 26.05. 22:20 4 1 - 60° NO
Di, 26.05. 22:10 4 1 - 80° O
Di, 26.05. 22:00 6 1 9 70° O
Di, 26.05. 21:30 7 2 11 70° O
Di, 26.05. 21:00 7 2 18 70° O
Di, 26.05. 20:30 11 2 18 80° O
Di, 26.05. 20:00 14 3 22 70° O
Di, 26.05. 19:30 13 3 20 80° O
Ortszeit Untergrenze Bedeckung Gattung
total tief tief mittel hoch
Di, 26.05. 20:00 1500 m 4/8 3/8 - - -
Di, 26.05. 14:00 1260 m 7/8 7/8 - - -
Di, 26.05. 8:00 1050 m 6/8 6/8 - - -
Di, 26.05. 2:00 - 0/8 0/8 - - -
Mo, 25.05. 20:00 1500 m 5/8 5/8 - - -
Mo, 25.05. 14:00 780 m 8/8 8/8 - - -
Mo, 25.05. 8:00 270 m 7/8 7/8 - - -
Mo, 25.05. 2:00 540 m 8/8 8/8 - - -
Ortszeit Bedeckungsgrad in Achtel und Wolkenuntergrenze
Di, 26.05. 23:00 2(6600m)
Di, 26.05. 22:50 2(6600m)
Di, 26.05. 22:40 keine Wolken
Di, 26.05. 22:30 keine Wolken
Di, 26.05. 22:20 keine Wolken
Di, 26.05. 22:10 keine Wolken
Di, 26.05. 22:00 keine Wolken
Di, 26.05. 21:30 1(10500m)
Di, 26.05. 21:00 2(10500m)
Di, 26.05. 20:30 5(1500m)
Di, 26.05. 20:00 3(1500m) 4(10500m)
Di, 26.05. 19:30 1(1500m)
Ortszeit Luftdruck NN (hPa) Tendenz (hPa in 3 Std.)
Di, 26.05. 20:00 1034 + 0,1
Di, 26.05. 14:00 1034 0,0
Di, 26.05. 8:00 1035 + 1,0
Di, 26.05. 2:00 1034 + 0,1
Mo, 25.05. 20:00 1031 + 0,2
Mo, 25.05. 14:00 1031 - 0,3
Mo, 25.05. 8:00 1032 + 0,7
Mo, 25.05. 2:00 1031 - 0,2
Ortszeit Luftdruck NN (hPa) Tendenz (hPa in 3 Std.)
Di, 26.05. 23:00 1035 + 0,4
Di, 26.05. 22:50 1035 keine Meldung
Di, 26.05. 22:40 1035 keine Meldung
Di, 26.05. 22:30 1035 + 0,3
Di, 26.05. 22:20 1035 keine Meldung
Di, 26.05. 22:10 1035 keine Meldung
Di, 26.05. 22:00 1035 + 0,3
Di, 26.05. 21:30 1035 + 0,2
Di, 26.05. 21:00 1034 0,0
Di, 26.05. 20:30 1034 0,0
Di, 26.05. 20:00 1034 + 0,1
Di, 26.05. 19:30 1034 + 0,1
Ortszeit Schneehöhe (cm)
Di, 26.05. 20:00 -
Di, 26.05. 14:00 -
Di, 26.05. 8:00 -
Di, 26.05. 2:00 -
Mo, 25.05. 20:00 -
Mo, 25.05. 14:00 -
Mo, 25.05. 8:00 -
Mo, 25.05. 2:00 -
Ortszeit Schneehöhe (cm)
Di, 26.05. 23:00 -
Di, 26.05. 22:50 -
Di, 26.05. 22:40 -
Di, 26.05. 22:30 -
Di, 26.05. 22:20 -
Di, 26.05. 22:10 -
Di, 26.05. 22:00 -
Di, 26.05. 21:30 -
Di, 26.05. 21:00 -
Di, 26.05. 20:30 -
Di, 26.05. 20:00 -
Di, 26.05. 19:30 -
Link zu dieser Seite / Seite empfehlen

Das Wetter in ...